Time;durP1;ratioP1;P1;durP2;ratioP2;P2;SDS_P1;SDS_P2;PMS_P1;PMS_P2;Temp;Humidity;BMP_temperature;BMP_pressure;BME280_temperature;BME280_humidity;BME280_pressure;Samples;Min_cycle;Max_cycle;Signal;HPM_P1;HPM_P2
2023/04/29 00:01:20;;;;;;;2.87;2.50;;;13.90;99.90;;;14.18;nan;100302.41;5002240;28;20650;-67
2023/04/29 00:03:47;;;;;;;2.50;2.40;;;14.00;99.90;;;14.21;nan;100297.69;5010430;28;20645;-66
2023/04/29 00:06:14;;;;;;;2.70;2.50;;;14.00;99.90;;;14.22;nan;100307.22;5012088;28;20684;-66
2023/04/29 00:08:41;;;;;;;2.73;2.50;;;14.00;99.90;;;14.20;nan;100298.69;5013084;28;21380;-66
2023/04/29 00:11:10;;;;;;;1.97;1.87;;;14.00;99.90;;;14.21;nan;100302.94;5014021;28;20633;-67
2023/04/29 00:13:39;;;;;;;2.90;2.63;;;14.00;99.90;;;14.16;nan;100305.16;5012846;28;20663;-66
2023/04/29 00:16:09;;;;;;;1.67;1.60;;;14.00;99.90;;;14.12;nan;100300.34;5012567;28;20660;-66
2023/04/29 00:18:36;;;;;;;2.23;2.13;;;13.90;99.90;;;14.09;nan;100290.97;5011762;28;20692;-66
2023/04/29 00:21:06;;;;;;;2.00;1.90;;;13.90;99.90;;;14.08;nan;100293.69;5012724;28;20687;-66
2023/04/29 00:23:34;;;;;;;1.90;1.80;;;13.90;99.90;;;14.05;nan;100301.88;5013092;28;20637;-66
2023/04/29 00:26:01;;;;;;;2.43;2.33;;;13.90;99.90;;;14.03;nan;100302.81;5013403;28;21045;-66
2023/04/29 00:28:28;;;;;;;2.70;2.50;;;13.80;99.90;;;14.05;nan;100307.13;5012415;28;20629;-66
2023/04/29 00:30:55;;;;;;;2.30;2.10;;;13.80;99.90;;;14.05;nan;100302.69;5012533;28;20626;-66
2023/04/29 00:33:22;;;;;;;2.30;2.17;;;13.90;99.90;;;14.06;nan;100304.34;5012277;28;20613;-66
2023/04/29 00:35:49;;;;;;;2.30;2.17;;;13.90;99.90;;;14.05;nan;100309.75;5015456;28;20673;-66
2023/04/29 00:38:16;;;;;;;2.57;2.40;;;13.90;99.90;;;14.03;nan;100308.06;5006221;28;20642;-66
2023/04/29 00:40:44;;;;;;;3.00;2.80;;;13.80;99.90;;;14.03;nan;100308.06;5006510;28;20641;-66
2023/04/29 00:43:11;;;;;;;2.97;2.70;;;13.80;99.90;;;14.03;nan;100308.06;5005976;28;21200;-66
2023/04/29 00:45:38;;;;;;;2.73;2.47;;;13.80;99.90;;;14.03;nan;100304.63;5010339;28;20688;-66
2023/04/29 00:48:05;;;;;;;2.60;2.40;;;13.80;99.90;;;14.00;nan;100302.28;5004763;28;20691;-66
2023/04/29 00:50:33;;;;;;;2.47;2.27;;;13.80;99.90;;;13.95;nan;100305.31;5006114;28;20640;-66
2023/04/29 00:53:00;;;;;;;2.83;2.50;;;13.80;99.90;;;13.91;nan;100298.69;5003615;28;20626;-66
2023/04/29 00:55:27;;;;;;;2.67;2.47;;;13.70;99.90;;;13.87;nan;100301.72;5010216;28;20673;-67
2023/04/29 00:57:56;;;;;;;3.30;3.00;;;13.70;99.90;;;13.81;nan;100303.13;5005340;28;20633;-65
2023/04/29 01:00:25;;;;;;;2.50;2.30;;;13.60;99.90;;;13.80;nan;100303.25;5009099;28;20648;-66
2023/04/29 01:02:53;;;;;;;2.97;2.30;;;13.60;99.90;;;13.77;nan;100301.75;5012378;28;20697;-66
2023/04/29 01:05:20;;;;;;;2.40;2.30;;;13.60;99.90;;;13.73;nan;100303.00;5011717;28;20673;-66
2023/04/29 01:08:13;;;;;;;3.80;3.17;;;13.50;99.90;;;13.68;nan;100304.38;5009999;28;20667;-67
2023/04/29 01:10:51;;;;;;;2.70;2.50;;;13.50;99.90;;;13.64;nan;100305.59;5004349;28;20637;-66
2023/04/29 01:13:46;;;;;;;2.13;2.03;;;13.50;99.90;;;13.63;nan;100307.38;5002686;28;20638;-65
2023/04/29 01:16:41;;;;;;;2.20;2.10;;;13.50;99.90;;;13.62;nan;100310.16;5004714;28;20672;-64
2023/04/29 01:19:47;;;;;;;1.93;1.83;;;13.50;99.90;;;13.57;nan;100313.19;4996582;28;20629;-66
2023/04/29 01:22:16;;;;;;;1.93;1.83;;;13.40;99.90;;;13.53;nan;100317.06;4991629;28;20634;-65
2023/04/29 01:24:43;;;;;;;2.43;2.33;;;13.40;99.90;;;13.47;nan;100320.22;5008015;28;20637;-65
2023/04/29 01:27:23;;;;;;;2.93;2.23;;;13.30;99.90;;;13.43;nan;100307.53;5000417;28;21266;-66
2023/04/29 01:30:21;;;;;;;2.13;2.03;;;13.20;99.90;;;13.46;nan;100317.75;5011784;28;21209;-67
2023/04/29 01:33:29;;;;;;;3.00;2.40;;;13.30;99.90;;;13.48;nan;100321.88;5011285;28;20633;-67
2023/04/29 01:36:32;;;;;;;2.43;2.17;;;13.30;99.90;;;13.53;nan;100313.59;5011400;28;20711;-66
2023/04/29 01:39:18;;;;;;;2.53;2.43;;;13.30;99.90;;;13.58;nan;100317.47;5006920;28;20637;-66
2023/04/29 01:42:00;;;;;;;3.33;2.53;;;13.40;99.90;;;13.61;nan;100319.81;5008476;28;20723;-65
2023/04/29 01:44:30;;;;;;;2.93;2.73;;;13.40;99.90;;;13.61;nan;100314.56;5010732;28;20997;-65
2023/04/29 01:46:58;;;;;;;3.20;2.37;;;13.40;99.90;;;13.66;nan;100319.41;5011875;28;20669;-66
2023/04/29 01:49:27;;;;;;;2.60;2.40;;;13.50;99.90;;;13.68;nan;100317.47;5011007;28;21162;-66
2023/04/29 01:51:54;;;;;;;6.90;2.60;;;13.50;99.90;;;13.73;nan;100310.03;5011286;28;20637;-66
2023/04/29 01:54:21;;;;;;;3.40;3.17;;;13.50;99.90;;;13.74;nan;100323.00;5010243;28;20629;-66
2023/04/29 01:56:49;;;;;;;2.83;2.63;;;13.60;99.90;;;13.76;nan;100321.06;5006601;28;20711;-66
2023/04/29 01:59:16;;;;;;;2.90;2.63;;;13.60;99.90;;;13.77;nan;100319.28;5008070;28;21196;-66
2023/04/29 02:01:43;;;;;;;2.50;2.30;;;13.60;99.90;;;13.76;nan;100328.09;5009192;28;20645;-65
2023/04/29 02:04:10;;;;;;;4.37;2.70;;;13.60;99.90;;;13.76;nan;100326.31;4997648;28;20671;-66
2023/04/29 02:06:38;;;;;;;2.00;1.90;;;13.60;99.90;;;13.78;nan;100329.63;5005644;28;20692;-66
2023/04/29 02:09:05;;;;;;;2.27;2.17;;;13.60;99.90;;;13.76;nan;100328.94;5008758;28;20644;-66
2023/04/29 02:11:32;;;;;;;2.03;1.93;;;13.60;99.90;;;13.75;nan;100329.91;5003839;28;20706;-66
2023/04/29 02:13:59;;;;;;;1.73;1.67;;;13.60;99.90;;;13.72;nan;100334.56;4999857;28;20630;-67
2023/04/29 02:16:26;;;;;;;2.30;1.40;;;13.50;99.90;;;13.70;nan;100337.34;4999876;28;20714;-66
2023/04/29 02:18:53;;;;;;;1.30;1.30;;;13.50;99.90;;;13.62;nan;100326.72;5008623;28;20637;-67
2023/04/29 02:21:19;;;;;;;1.57;1.47;;;13.50;99.90;;;13.58;nan;100337.63;5009624;28;20641;-66
2023/04/29 02:23:46;;;;;;;1.37;1.17;;;13.40;99.90;;;13.60;nan;100338.31;5002364;28;20637;-67
2023/04/29 02:26:14;;;;;;;1.37;1.33;;;13.40;99.90;;;13.62;nan;100333.75;5001806;28;20683;-66
2023/04/29 02:28:41;;;;;;;1.23;1.23;;;13.50;99.90;;;13.58;nan;100335.84;4996221;28;20629;-66
2023/04/29 02:31:08;;;;;;;1.20;1.20;;;13.40;99.90;;;13.50;nan;100340.91;5009185;28;20629;-67
2023/04/29 02:33:35;;;;;;;1.60;1.50;;;13.30;99.90;;;13.47;nan;100341.19;5010537;28;20689;-66
2023/04/29 02:36:02;;;;;;;0.97;0.97;;;13.30;99.90;;;13.41;nan;100346.97;5009969;28;20726;-66
2023/04/29 02:38:29;;;;;;;1.60;1.50;;;13.20;99.90;;;13.35;nan;100341.44;4996958;28;20648;-68
2023/04/29 02:40:56;;;;;;;1.23;1.13;;;13.10;99.90;;;13.32;nan;100339.91;4998365;28;21067;-67
2023/04/29 02:43:23;;;;;;;1.70;1.60;;;13.10;99.90;;;13.31;nan;100340.88;5010100;28;21347;-67
2023/04/29 02:45:50;;;;;;;1.50;1.40;;;13.10;99.90;;;13.27;nan;100344.72;5028529;22;20692;-67
2023/04/29 02:48:17;;;;;;;2.17;2.03;;;13.10;99.90;;;13.27;nan;100351.78;5001701;28;20626;-67
2023/04/29 02:50:44;;;;;;;1.40;1.27;;;13.10;99.90;;;13.26;nan;100340.47;5007783;28;21201;-67
2023/04/29 02:53:11;;;;;;;2.03;1.50;;;13.10;99.90;;;13.21;nan;100343.47;5004233;28;21189;-68
2023/04/29 02:55:38;;;;;;;3.27;2.53;;;13.10;99.90;;;13.22;nan;100344.31;5010076;28;20661;-68
2023/04/29 02:58:05;;;;;;;1.83;1.73;;;13.10;99.90;;;13.20;nan;100347.03;5010164;28;20637;-68
2023/04/29 03:00:32;;;;;;;1.77;1.67;;;13.00;99.90;;;13.20;nan;100347.03;5008906;28;21247;-68
2023/04/29 03:02:59;;;;;;;1.37;1.27;;;13.00;99.90;;;13.19;nan;100345.41;5004950;28;20642;-67
2023/04/29 03:05:26;;;;;;;1.70;1.57;;;13.00;99.90;;;13.19;nan;100341.94;5003530;28;20674;-68
2023/04/29 03:07:53;;;;;;;1.30;1.30;;;13.00;99.90;;;13.17;nan;100343.88;4999475;28;21047;-66
2023/04/29 03:10:20;;;;;;;2.90;1.50;;;13.00;99.90;;;13.13;nan;100345.94;5000489;28;21199;-67
2023/04/29 03:12:47;;;;;;;1.67;1.57;;;13.00;99.90;;;13.15;nan;100348.41;5009772;28;20641;-67
2023/04/29 03:15:14;;;;;;;1.00;1.00;;;13.00;99.90;;;13.21;nan;100350.50;5009045;28;20641;-67
2023/04/29 03:17:41;;;;;;;1.50;1.40;;;13.00;99.90;;;13.18;nan;100356.03;5001149;28;21228;-67
2023/04/29 03:20:09;;;;;;;1.20;1.20;;;13.00;99.90;;;13.19;nan;100357.66;4997580;28;20633;-68
2023/04/29 03:22:36;;;;;;;1.30;1.20;;;13.00;99.90;;;13.19;nan;100361.13;4996243;28;21010;-68
2023/04/29 03:25:04;;;;;;;1.13;1.10;;;13.00;99.90;;;13.22;nan;100357.41;4990312;28;20672;-68
2023/04/29 03:27:31;;;;;;;2.00;1.80;;;13.10;99.90;;;13.15;nan;100356.28;4995599;28;20649;-68
2023/04/29 03:29:58;;;;;;;2.07;1.70;;;13.00;99.90;;;13.11;nan;100360.13;5010462;28;20625;-69
2023/04/29 03:32:25;;;;;;;1.43;1.43;;;13.00;99.90;;;13.06;nan;100355.28;5009104;28;20641;-67
2023/04/29 03:34:54;;;;;;;1.50;1.40;;;12.90;99.90;;;13.07;nan;100353.50;5010576;28;20687;-68
2023/04/29 03:37:20;;;;;;;1.80;1.70;;;12.90;99.90;;;13.04;nan;100356.34;5008861;28;20666;-68
2023/04/29 03:39:47;;;;;;;1.63;1.53;;;12.90;99.90;;;13.02;nan;100363.50;5009555;28;21067;-67
2023/04/29 03:42:15;;;;;;;1.50;1.40;;;12.90;99.90;;;13.01;nan;100362.66;5009357;28;20633;-66
2023/04/29 03:44:42;;;;;;;1.30;1.10;;;12.90;99.90;;;13.02;nan;100366.13;5014085;28;21227;-67
2023/04/29 03:47:09;;;;;;;1.33;1.33;;;12.90;99.90;;;12.99;nan;100366.41;5027147;28;21471;-67
2023/04/29 03:49:36;;;;;;;1.30;1.20;;;12.80;99.90;;;12.91;nan;100363.59;5013722;28;20641;-66
2023/04/29 03:52:03;;;;;;;1.70;1.70;;;12.80;99.90;;;12.90;nan;100375.88;5013479;28;20699;-66
2023/04/29 03:54:30;;;;;;;1.17;1.17;;;12.70;99.90;;;12.95;nan;100386.75;5012649;28;20732;-67
2023/04/29 03:56:57;;;;;;;1.60;1.60;;;12.80;99.90;;;12.94;nan;100385.13;5012270;28;20668;-66
2023/04/29 03:59:25;;;;;;;1.87;1.77;;;12.80;99.90;;;12.99;nan;100392.59;5013077;28;20643;-67
2023/04/29 04:01:53;;;;;;;1.60;1.50;;;12.80;99.90;;;13.01;nan;100388.84;5013484;28;21321;-67
2023/04/29 04:04:20;;;;;;;7.20;1.77;;;12.90;99.90;;;13.06;nan;100388.50;5012238;28;20686;-67
2023/04/29 04:06:50;;;;;;;1.40;1.30;;;12.90;99.90;;;13.09;nan;100401.34;5013538;28;20677;-67
2023/04/29 04:09:17;;;;;;;1.80;1.70;;;12.90;99.90;;;13.11;nan;100400.25;5011801;28;21228;-68
2023/04/29 04:11:45;;;;;;;2.03;1.70;;;13.00;99.90;;;13.14;nan;100401.75;5011204;28;20637;-66
2023/04/29 04:14:12;;;;;;;1.83;1.73;;;13.00;99.90;;;13.17;nan;100406.75;5006359;28;20668;-68
2023/04/29 04:16:39;;;;;;;3.33;1.73;;;13.00;99.90;;;13.22;nan;100408.00;5011848;28;20695;-69
2023/04/29 04:19:07;;;;;;;1.50;1.40;;;13.10;99.90;;;13.20;nan;100407.28;4994306;28;20644;-67
2023/04/29 04:21:34;;;;;;;1.10;1.10;;;13.10;99.90;;;13.18;nan;100414.47;4988977;28;20641;-67
2023/04/29 04:24:01;;;;;;;1.53;1.43;;;13.00;99.90;;;13.22;nan;100415.06;4997704;28;20642;-67
2023/04/29 04:26:28;;;;;;;1.10;1.10;;;13.10;99.90;;;13.23;nan;100412.28;5004521;28;20793;-66
2023/04/29 04:28:55;;;;;;;1.17;1.07;;;13.10;99.90;;;13.28;nan;100411.91;5011567;28;20997;-66
2023/04/29 04:31:22;;;;;;;1.10;1.10;;;13.10;99.90;;;13.29;nan;100408.28;5012600;28;20618;-67
2023/04/29 04:33:50;;;;;;;2.10;1.50;;;13.10;99.90;;;13.31;nan;100419.47;5011354;28;20644;-66
2023/04/29 04:36:16;;;;;;;1.53;1.43;;;13.20;99.90;;;13.32;nan;100421.16;4994696;28;20670;-67
2023/04/29 04:38:45;;;;;;;1.20;1.17;;;13.20;99.90;;;13.35;nan;100426.13;5010429;28;20659;-67
2023/04/29 04:41:13;;;;;;;1.50;1.40;;;13.20;99.90;;;13.36;nan;100422.53;5008969;28;20622;-67
2023/04/29 04:43:41;;;;;;;1.20;1.20;;;13.20;99.90;;;13.39;nan;100430.16;4991605;28;20709;-67
2023/04/29 04:46:13;;;;;;;1.50;1.40;;;13.20;99.90;;;13.42;nan;100437.72;5004042;28;20757;-67
2023/04/29 04:48:41;;;;;;;0.97;0.97;;;13.20;99.90;;;13.44;nan;100430.56;5012577;28;20641;-69
2023/04/29 04:51:10;;;;;;;1.00;1.00;;;13.30;99.90;;;13.50;nan;100440.50;5027471;28;20719;-68
2023/04/29 04:53:39;;;;;;;1.30;1.20;;;13.30;99.90;;;13.55;nan;100435.69;5009189;28;20806;-68
2023/04/29 04:56:07;;;;;;;1.27;1.20;;;13.40;99.90;;;13.56;nan;100437.38;5011707;28;21032;-67
2023/04/29 04:58:34;;;;;;;1.93;1.60;;;13.40;99.90;;;13.59;nan;100444.94;4994462;28;20633;-67
2023/04/29 05:01:01;;;;;;;1.30;1.30;;;13.40;99.90;;;13.64;nan;100449.78;5003488;28;20641;-67
2023/04/29 05:03:28;;;;;;;1.40;1.30;;;13.40;99.90;;;13.71;nan;100458.78;5011091;28;20629;-67
2023/04/29 05:05:57;;;;;;;1.20;1.13;;;13.50;99.90;;;13.74;nan;100464.59;5001991;28;20672;-66
2023/04/29 05:08:24;;;;;;;1.40;1.07;;;13.60;99.90;;;13.76;nan;100467.06;5002397;28;21170;-67
2023/04/29 05:10:52;;;;;;;1.10;1.00;;;13.60;99.90;;;13.78;nan;100465.97;5010760;28;20633;-67
2023/04/29 05:13:20;;;;;;;4.20;1.33;;;13.60;99.90;;;13.82;nan;100463.94;5011514;28;20637;-67
2023/04/29 05:15:47;;;;;;;1.10;1.10;;;13.60;99.90;;;13.81;nan;100470.13;5011508;28;20661;-68
2023/04/29 05:18:14;;;;;;;1.10;1.10;;;13.60;99.90;;;13.82;nan;100461.31;5010681;28;20645;-68
2023/04/29 05:20:41;;;;;;;1.13;1.13;;;13.60;99.90;;;13.87;nan;100469.59;4999251;28;20646;-68
2023/04/29 05:23:08;;;;;;;1.20;1.20;;;13.70;99.90;;;13.89;nan;100475.53;5010739;28;20695;-65
2023/04/29 05:25:35;;;;;;;0.93;0.93;;;13.70;99.90;;;13.93;nan;100472.50;5011841;28;20645;-67
2023/04/29 05:28:03;;;;;;;1.37;1.37;;;13.80;99.90;;;14.00;nan;100475.41;5010559;28;20665;-67
2023/04/29 05:30:30;;;;;;;1.67;1.23;;;13.80;99.90;;;14.07;nan;100487.03;5009878;28;20637;-67
2023/04/29 05:32:57;;;;;;;1.00;1.00;;;13.90;99.90;;;14.12;nan;100490.06;5010712;28;20795;-67
2023/04/29 05:35:25;;;;;;;1.33;1.27;;;13.90;99.90;;;14.15;nan;100489.78;5010796;28;20653;-67
2023/04/29 05:37:52;;;;;;;1.03;1.03;;;13.90;99.90;;;14.17;nan;100490.47;5012209;28;20633;-67
2023/04/29 05:40:19;;;;;;;1.70;1.60;;;14.00;99.90;;;14.21;nan;100494.50;5011496;28;20633;-68
2023/04/29 05:42:46;;;;;;;1.23;1.10;;;14.00;99.90;;;14.26;nan;100496.72;5010582;28;20641;-68
2023/04/29 05:45:13;;;;;;;1.97;1.87;;;14.10;99.90;;;14.26;nan;100499.34;5010785;28;20679;-67
2023/04/29 05:47:40;;;;;;;2.10;1.47;;;14.10;99.90;;;14.23;nan;100503.06;4995730;28;20666;-67
2023/04/29 05:50:07;;;;;;;2.70;1.77;;;14.10;99.90;;;14.22;nan;100504.03;4995266;28;20711;-66
2023/04/29 05:52:34;;;;;;;1.93;1.83;;;14.10;99.90;;;14.22;nan;100508.44;5011995;28;20633;-66
2023/04/29 05:55:01;;;;;;;1.80;1.70;;;14.10;99.90;;;14.22;nan;100516.31;5008974;28;20706;-67
2023/04/29 05:57:28;;;;;;;1.93;1.70;;;14.10;99.90;;;14.21;nan;100515.47;5011362;28;20633;-68
2023/04/29 05:59:55;;;;;;;1.97;1.80;;;14.10;99.90;;;14.21;nan;100519.91;5010517;28;21211;-67
2023/04/29 06:02:22;;;;;;;1.70;1.60;;;14.00;99.90;;;14.23;nan;100517.97;5010727;28;20629;-68
2023/04/29 06:04:49;;;;;;;1.50;1.50;;;14.10;99.90;;;14.24;nan;100517.84;5010199;28;20638;-67
2023/04/29 06:07:17;;;;;;;1.87;1.80;;;14.10;99.90;;;14.21;nan;100520.72;5011316;28;20673;-67
2023/04/29 06:09:46;;;;;;;2.20;2.10;;;14.10;99.90;;;14.21;nan;100522.50;5010125;28;20634;-67
2023/04/29 06:12:13;;;;;;;2.70;1.87;;;14.00;99.90;;;14.23;nan;100525.84;5006610;28;20626;-67
2023/04/29 06:14:40;;;;;;;1.50;1.50;;;14.00;99.90;;;14.30;nan;100532.25;5011075;28;20660;-67
2023/04/29 06:17:07;;;;;;;2.13;1.93;;;14.10;99.90;;;14.29;nan;100531.41;5008727;28;21282;-68
2023/04/29 06:19:34;;;;;;;1.93;1.83;;;14.10;99.90;;;14.36;nan;100540.41;5007120;28;21032;-66
2023/04/29 06:22:01;;;;;;;2.03;1.83;;;14.10;99.90;;;14.44;nan;100537.06;5011286;28;20638;-67
2023/04/29 06:24:28;;;;;;;1.80;1.70;;;14.20;99.90;;;14.52;nan;100540.69;5007562;28;20637;-67
2023/04/29 06:26:55;;;;;;;2.00;1.90;;;14.30;99.90;;;14.57;nan;100542.88;5003258;28;21826;-68
2023/04/29 06:29:22;;;;;;;1.90;1.80;;;14.40;99.90;;;14.57;nan;100550.78;5004762;28;21213;-67
2023/04/29 06:31:49;;;;;;;5.07;1.90;;;14.40;99.90;;;14.60;nan;100553.13;5004558;28;20673;-65
2023/04/29 06:34:16;;;;;;;2.13;2.03;;;14.40;99.90;;;14.60;nan;100551.34;5004389;28;20641;-69
2023/04/29 06:36:43;;;;;;;2.03;1.93;;;14.40;99.90;;;14.59;nan;100562.81;5003977;28;20661;-68
2023/04/29 06:39:10;;;;;;;2.30;2.20;;;14.40;99.90;;;14.57;nan;100562.09;5001180;28;20631;-67
2023/04/29 06:41:37;;;;;;;2.13;2.03;;;14.40;99.90;;;14.55;nan;100563.22;5007572;28;21230;-67
2023/04/29 06:44:04;;;;;;;2.17;2.07;;;14.40;99.90;;;14.52;nan;100569.56;5003463;28;20631;-67
2023/04/29 06:46:31;;;;;;;2.90;2.60;;;14.30;99.90;;;14.46;nan;100566.69;4996216;28;20678;-68
2023/04/29 06:48:58;;;;;;;2.50;2.40;;;14.30;99.90;;;14.42;nan;100570.50;5003123;28;20637;-66
2023/04/29 06:51:26;;;;;;;2.33;2.23;;;14.30;99.90;;;14.42;nan;100575.75;5008058;28;20645;-68
2023/04/29 06:53:54;;;;;;;3.60;3.30;;;14.30;99.90;;;14.40;nan;100581.16;5012515;28;20653;-67
2023/04/29 06:56:20;;;;;;;4.10;3.70;;;14.20;99.90;;;14.41;nan;100576.75;5007947;28;20680;-67
2023/04/29 06:58:47;;;;;;;5.67;3.97;;;14.20;99.90;;;14.34;nan;100594.81;5011604;28;20645;-67
2023/04/29 07:01:14;;;;;;;5.93;5.27;;;14.20;99.90;;;14.26;nan;100593.81;5008889;28;20636;-66
2023/04/29 07:03:42;;;;;;;5.93;3.83;;;14.10;99.90;;;14.22;nan;100600.28;5006256;28;20989;-67
2023/04/29 07:06:09;;;;;;;9.57;6.40;;;14.00;99.90;;;14.16;nan;100604.25;5009610;28;20661;-68
2023/04/29 07:08:36;;;;;;;9.47;6.10;;;14.00;99.90;;;14.06;nan;100599.94;5010374;28;20637;-67
2023/04/29 07:11:04;;;;;;;8.97;5.37;;;14.00;99.90;;;14.01;nan;100603.81;5009496;28;20642;-68
2023/04/29 07:13:31;;;;;;;9.00;5.23;;;13.90;99.90;;;14.00;nan;100612.66;5005044;28;20638;-67
2023/04/29 07:15:58;;;;;;;7.20;4.50;;;13.80;99.90;;;14.01;nan;100614.31;4998832;28;20669;-68
2023/04/29 07:18:25;;;;;;;6.73;4.30;;;13.80;99.90;;;14.05;nan;100620.13;5010564;28;20625;-67
2023/04/29 07:20:52;;;;;;;8.63;5.10;;;13.90;99.90;;;14.08;nan;100626.88;5013833;28;21217;-68
2023/04/29 07:23:19;;;;;;;9.53;6.70;;;13.90;99.90;;;14.13;nan;100624.69;5014218;28;20629;-65
2023/04/29 07:25:46;;;;;;;10.23;6.77;;;13.90;99.90;;;14.13;nan;100633.41;4995520;28;20662;-68
2023/04/29 07:28:13;;;;;;;10.17;5.97;;;14.00;99.90;;;14.14;nan;100629.81;4994066;28;20728;-67
2023/04/29 07:30:40;;;;;;;10.57;6.57;;;14.00;99.90;;;14.16;nan;100637.56;5013557;28;20656;-67
2023/04/29 07:33:07;;;;;;;8.50;6.20;;;14.00;99.90;;;14.22;nan;100644.91;5012361;28;20629;-67
2023/04/29 07:35:34;;;;;;;6.23;4.73;;;14.00;99.90;;;14.28;nan;100647.00;5013563;28;21248;-70
2023/04/29 07:38:01;;;;;;;6.17;4.60;;;14.10;99.90;;;14.33;nan;100655.34;4993749;28;20706;-67
2023/04/29 07:40:28;;;;;;;10.47;7.00;;;14.10;99.90;;;14.32;nan;100644.00;5013463;28;20608;-68
2023/04/29 07:42:55;;;;;;;9.43;6.37;;;14.10;99.90;;;14.35;nan;100653.41;5011126;28;21279;-65
2023/04/29 07:45:22;;;;;;;8.97;5.97;;;14.10;99.90;;;14.33;nan;100655.34;4992551;28;20712;-66
2023/04/29 07:47:49;;;;;;;9.40;6.33;;;14.20;99.90;;;14.36;nan;100662.94;5010153;28;20673;-67
2023/04/29 07:50:16;;;;;;;8.20;5.73;;;14.20;99.90;;;14.36;nan;100658.50;5013976;28;20636;-67
2023/04/29 07:52:43;;;;;;;5.50;4.30;;;14.20;99.90;;;14.40;nan;100661.69;5012831;28;20625;-67
2023/04/29 07:55:10;;;;;;;7.10;5.13;;;14.20;99.90;;;14.43;nan;100671.94;5011823;28;21327;-66
2023/04/29 07:57:37;;;;;;;10.53;6.60;;;14.20;99.90;;;14.47;nan;100665.47;5011244;28;20629;-68
2023/04/29 08:00:06;;;;;;;8.80;5.70;;;14.30;99.90;;;14.52;nan;100671.16;5012302;28;20637;-68
2023/04/29 08:02:33;;;;;;;8.13;6.00;;;14.30;99.90;;;14.56;nan;100668.13;5010804;28;21259;-67
2023/04/29 08:05:01;;;;;;;5.53;4.90;;;14.40;99.90;;;14.68;nan;100671.44;5011390;28;21224;-67
2023/04/29 08:07:29;;;;;;;6.13;5.53;;;14.50;99.90;;;14.70;nan;100672.13;5010369;28;20739;-67
2023/04/29 08:09:55;;;;;;;5.30;4.20;;;14.50;99.90;;;14.69;nan;100679.19;5014189;28;20691;-67
2023/04/29 08:12:22;;;;;;;4.40;4.00;;;14.50;99.90;;;14.69;nan;100683.63;5010660;28;20664;-66
2023/04/29 08:14:49;;;;;;;3.67;3.20;;;14.50;99.90;;;14.68;nan;100677.53;5013979;28;20605;-66
2023/04/29 08:17:16;;;;;;;4.77;4.30;;;14.50;99.90;;;14.61;nan;100686.91;5011399;28;21330;-67
2023/04/29 08:19:44;;;;;;;5.30;4.57;;;14.50;99.90;;;14.50;nan;100684.38;5013114;28;20698;-68
2023/04/29 08:22:11;;;;;;;4.80;4.33;;;14.40;99.90;;;14.42;nan;100691.25;4984550;28;20645;-67
2023/04/29 08:24:41;;;;;;;6.40;4.57;;;14.30;99.90;;;14.43;nan;100698.19;4996056;28;21021;-67
2023/04/29 08:27:08;;;;;;;5.50;4.40;;;14.30;99.90;;;14.43;nan;100700.81;5012020;28;20672;-64
2023/04/29 08:29:36;;;;;;;5.50;4.30;;;14.20;99.90;;;14.35;nan;100700.66;5007608;28;21259;-67
2023/04/29 08:32:04;;;;;;;5.47;4.70;;;14.20;99.90;;;14.33;nan;100702.59;5001024;28;21114;-67
2023/04/29 08:34:32;;;;;;;5.60;5.00;;;14.10;99.90;;;14.34;nan;100696.34;4987993;28;20643;-67
2023/04/29 08:36:59;;;;;;;4.83;4.20;;;14.10;99.90;;;14.31;nan;100696.63;5000292;28;20662;-67
2023/04/29 08:39:29;;;;;;;7.77;3.90;;;14.10;99.90;;;14.35;nan;100708.53;5006185;28;20641;-66
2023/04/29 08:41:58;;;;;;;5.70;4.60;;;14.20;99.90;;;14.32;nan;100700.91;5006700;28;21214;-67
2023/04/29 08:44:29;;;;;;;6.03;4.03;;;14.20;99.90;;;14.29;nan;100703.81;5003964;28;20649;-67
2023/04/29 08:46:58;;;;;;;4.50;4.10;;;14.10;99.90;;;14.27;nan;100708.34;5003191;28;20734;-68
2023/04/29 08:49:27;;;;;;;6.13;4.67;;;14.10;99.90;;;14.28;nan;100704.72;5010589;28;21251;-67
2023/04/29 08:51:54;;;;;;;7.23;3.57;;;14.00;99.90;;;14.32;nan;100700.91;5010088;28;20633;-68
2023/04/29 08:54:21;;;;;;;4.43;4.03;;;14.10;99.90;;;14.37;nan;100706.59;5003103;28;20680;-66
2023/04/29 08:56:49;;;;;;;4.53;3.30;;;14.10;99.90;;;14.42;nan;100707.84;5012542;28;20687;-69
2023/04/29 08:59:17;;;;;;;4.17;3.73;;;14.20;99.90;;;14.44;nan;100710.34;5009244;28;20633;-67
2023/04/29 09:01:51;;;;;;;3.50;3.20;;;14.20;99.90;;;14.50;nan;100712.47;5011604;28;20636;-67
2023/04/29 09:04:59;;;;;;;4.20;3.80;;;14.30;99.90;;;14.56;nan;100714.53;5009002;28;20640;-67
2023/04/29 09:07:27;;;;;;;4.10;3.70;;;14.30;99.90;;;14.64;nan;100725.22;5011794;28;20665;-68
2023/04/29 09:09:54;;;;;;;3.37;2.60;;;14.40;99.90;;;14.71;nan;100721.88;5012220;28;20613;-68
2023/04/29 09:12:21;;;;;;;3.13;2.83;;;14.50;99.90;;;14.65;nan;100729.50;5005512;28;20640;-67
2023/04/29 09:14:48;;;;;;;3.60;3.27;;;14.50;99.90;;;14.66;nan;100731.16;5003910;28;21251;-66
2023/04/29 09:17:15;;;;;;;4.13;2.67;;;14.40;99.90;;;14.70;nan;100732.53;5001527;28;20661;-67
2023/04/29 09:19:43;;;;;;;2.90;2.70;;;14.50;99.90;;;14.78;nan;100732.69;5009674;28;20634;-69
2023/04/29 09:22:10;;;;;;;3.90;3.60;;;14.50;99.90;;;14.84;nan;100736.59;5005688;28;20638;-66
2023/04/29 09:24:38;;;;;;;3.07;2.60;;;14.60;99.90;;;14.84;nan;100740.06;4991781;28;20610;-66
2023/04/29 09:27:05;;;;;;;2.77;2.57;;;14.60;99.90;;;14.92;nan;100737.59;5004263;28;20665;-66
2023/04/29 09:29:35;;;;;;;2.83;2.60;;;14.70;99.90;;;15.05;nan;100742.59;5011361;28;21227;-65
2023/04/29 09:32:19;;;;;;;2.37;2.17;;;14.80;99.90;;;15.21;nan;100742.88;5009506;28;21181;-66
2023/04/29 09:34:46;;;;;;;4.70;2.60;;;15.00;99.90;;;15.41;nan;100736.66;5009449;28;20622;-66
2023/04/29 09:37:26;;;;;;;2.87;2.67;;;15.10;99.90;;;15.62;nan;100747.06;5009227;28;20665;-67
2023/04/29 09:39:53;;;;;;;2.73;2.53;;;15.30;99.90;;;15.79;nan;100747.19;5010928;28;20615;-67
2023/04/29 09:42:21;;;;;;;2.73;2.53;;;15.50;99.90;;;15.89;nan;100739.25;5025373;28;20638;-67
2023/04/29 09:44:48;;;;;;;3.23;2.80;;;15.60;99.90;;;15.95;nan;100738.72;5009539;28;20625;-66
2023/04/29 09:47:16;;;;;;;2.73;1.97;;;15.70;99.90;;;16.05;nan;100744.78;5009447;28;20673;-67
2023/04/29 09:49:48;;;;;;;1.87;1.77;;;15.80;99.90;;;16.13;nan;100752.78;5010129;28;20629;-67
2023/04/29 09:52:17;;;;;;;3.87;3.50;;;15.90;99.90;;;16.21;nan;100742.38;5009746;28;20621;-66
2023/04/29 09:54:44;;;;;;;3.20;2.90;;;16.00;99.90;;;16.27;nan;100749.69;5009517;28;20645;-67
2023/04/29 09:57:15;;;;;;;2.80;2.47;;;16.00;99.90;;;16.35;nan;100751.63;5003797;28;20662;-67
2023/04/29 09:59:42;;;;;;;2.87;2.67;;;16.10;99.90;;;16.43;nan;100755.19;5002726;28;20683;-67
2023/04/29 10:02:14;;;;;;;3.23;2.90;;;16.20;99.90;;;16.43;nan;100754.34;5009686;28;20649;-67
2023/04/29 10:04:45;;;;;;;3.07;2.87;;;16.30;99.90;;;16.42;nan;100758.78;5008346;28;21027;-69
2023/04/29 10:07:16;;;;;;;3.37;3.07;;;16.20;99.90;;;16.44;nan;100756.84;4995636;28;21303;-69
2023/04/29 10:09:46;;;;;;;4.10;3.70;;;16.20;99.90;;;16.40;nan;100755.47;5000034;28;20814;-66
2023/04/29 10:12:19;;;;;;;3.53;2.70;;;16.20;99.90;;;16.26;nan;100759.41;4990276;28;20626;-68
2023/04/29 10:15:07;;;;;;;4.27;3.53;;;16.10;99.90;;;16.33;nan;100757.84;4996393;28;20641;-69
2023/04/29 10:18:03;;;;;;;4.03;3.10;;;16.10;99.90;;;16.59;nan;100752.78;4999106;28;20667;-68
2023/04/29 10:20:31;;;;;;;3.70;3.40;;;16.30;99.90;;;16.72;nan;100761.19;5021499;28;21251;-65
2023/04/29 10:22:59;;;;;;;4.00;3.10;;;16.60;99.90;;;16.81;nan;100755.03;5009037;28;20634;-65
2023/04/29 10:25:27;;;;;;;3.67;3.20;;;16.60;99.90;;;17.04;nan;100748.38;5003627;28;20656;-65
2023/04/29 10:27:55;;;;;;;3.33;3.03;;;16.80;99.90;;;17.46;nan;100758.34;4991033;28;20662;-65
2023/04/29 10:30:22;;;;;;;4.20;3.80;;;17.20;99.90;;;17.73;nan;100753.00;4989240;28;21051;-64
2023/04/29 10:32:50;;;;;;;3.60;3.30;;;17.50;99.90;;;18.28;nan;100748.25;4995451;28;20630;-67